Terminal Aerodrome Forecast
Issued by NWS Upton, NY

Home | Current Version | Previous Version | Text Only | Print | Product List | Glossary On
Versions: 1 2 3 4 5 6 7 8 9 10 11 12 13 14 15 16 17 18 19 20 21 22 23 24 25 26 27 28 29 30 31 32 33 34 35 36 37 38
445
FTUS41 KOKX 280839 AAA
TAFEWR
TAF AMD
KEWR 280839Z 2809/0112 19003KT P6SM OVC100
     FM281100 13003KT P6SM BKN070
     FM281600 11004KT P6SM BKN020 OVC080
     FM282100 14007KT P6SM BKN020 OVC040
     FM010000 15007KT 4SM BR BKN006 OVC010
     FM010200 16008KT 2SM RA BR OVC005
     FM010700 19009KT 3SM BR OVC005 WS020/24045KT=

USA.gov is the U.S. government's official web portal to all federal, state and local government web resources and services.